Flight Track Log - Related Links

Times and Time Zones

All times are in EDT time to prevent confusion due to time zone crossing. See the NKS971 flight status page for this flight to view local times or setup timezone preferences in your user account.


Time Position Orientation Groundspeed Altitude Reporting Facility
EDT Latitude Longitude Course Direction KTS MPH feet Rate Location/Type
Mon 08:39:12 PM 26.0770 -80.1350 89° East 163 188 600  Level FlightAware ADS-B
Mon 08:39:37 PM 26.0770 -80.1140 90° East 170 196 1,700 1,745 Climbing FlightAware ADS-B
Mon 08:40:07 PM 26.0780 -80.0850 88° East 205 236 2,200 1,100 Climbing FlightAware ADS-B
Mon 08:40:37 PM 26.0890 -80.0530 69° East 245 282 2,800 1,350 Climbing FlightAware ADS-B
Mon 08:40:47 PM 26.0980 -80.0450 39° Northeast 256 295 3,100 2,640 Climbing FlightAware ADS-B
Mon 08:41:02 PM 26.1160 -80.0410 11° North 262 302 3,900 3,067 Climbing FlightAware ADS-B
Mon 08:41:32 PM 26.1490 -80.0560 338° Northwest 260 299 5,400 2,945 Climbing FlightAware ADS-B
Mon 08:41:57 PM 26.1740 -80.0780 322° Northwest 271 312 6,600 2,945 Climbing FlightAware ADS-B
Mon 08:42:27 PM 26.2040 -80.1040 322° Northwest 275 316 8,100 2,800 Climbing FlightAware ADS-B
Mon 08:42:42 PM 26.2130 -80.1230 298° West 281 323 8,700 2,700 Climbing FlightAware ADS-B
Mon 08:43:07 PM 26.2190 -80.1600 280° West 287 330 9,900 2,400 Climbing FlightAware ADS-B
Mon 08:43:52 PM 26.2300 -80.2240 281° West 305 351 11,500 2,329 Climbing FlightAware ADS-B
Mon 08:44:32 PM 26.2430 -80.2900 282° West 318 366 13,200 1,950 Climbing FlightAware ADS-B
Mon 08:45:12 PM 26.2550 -80.3570 281° West 346 398 14,100 1,765 Climbing FlightAware ADS-B
Mon 08:45:57 PM 26.2700 -80.4370 282° West 351 404 15,700 1,906 Climbing FlightAware ADS-B
Mon 08:46:37 PM 26.2840 -80.5090 282° West 365 420 16,800 1,745 Climbing FlightAware ADS-B
Mon 08:46:52 PM 26.2920 -80.5350 289° West 372 428 17,300 2,200 Climbing FlightAware ADS-B
Mon 08:47:37 PM 26.3370 -80.6070 305° West 370 426 19,000 2,047 Climbing FlightAware ADS-B
Mon 08:48:17 PM 26.3770 -80.6700 305° West 376 433 20,200 1,875 Climbing FlightAware ADS-B
Mon 08:48:57 PM 26.4180 -80.7340 306° West 378 435 21,500 1,725 Climbing FlightAware ADS-B
Mon 08:49:37 PM 26.4590 -80.7990 305° West 382 440 22,500 1,482 Climbing FlightAware ADS-B
Mon 08:50:22 PM 26.5010 -80.8770 301° West 387 445 23,600 1,467 Climbing FlightAware ADS-B
Mon 08:51:07 PM 26.5290 -80.9630 290° West 391 450 24,700 1,412 Climbing FlightAware ADS-B
Mon 08:51:47 PM 26.5550 -81.0390 291° West 397 457 25,600 1,275 Climbing FlightAware ADS-B
Mon 08:52:27 PM 26.5800 -81.1160 290° West 402 463 26,400 1,059 Climbing FlightAware ADS-B
Mon 08:53:12 PM 26.6100 -81.2060 290° West 413 475 27,100 1,129 Climbing FlightAware ADS-B
Mon 08:53:52 PM 26.6370 -81.2870 290° West 413 475 28,000 1,425 Climbing FlightAware ADS-B
Mon 08:54:32 PM 26.6630 -81.3630 291° West 408 470 29,000 1,200 Climbing FlightAware ADS-B
Mon 08:55:17 PM 26.6930 -81.4550 290° West 414 476 29,700 1,200 Climbing FlightAware ADS-B
Mon 08:55:47 PM 26.7120 -81.5140 290° West 405 466 30,500 1,440 Climbing FlightAware ADS-B
Mon 08:56:32 PM 26.7420 -81.6030 291° West 401 461 31,500 1,263 Climbing FlightAware ADS-B
Mon 08:57:22 PM 26.7750 -81.7040 290° West 398 458 32,500 1,400 Climbing FlightAware ADS-B
Mon 08:58:02 PM 26.7990 -81.7790 290° West 390 449 33,600 1,482 Climbing FlightAware ADS-B
Mon 08:58:47 PM 26.8270 -81.8620 291° West 379 436 34,600 988 Climbing FlightAware ADS-B
Mon 08:59:27 PM 26.8510 -81.9360 290° West 381 438 35,000 675 Climbing FlightAware ADS-B
Mon 09:00:07 PM 26.8750 -82.0100 290° West 382 440 35,500 675 Climbing FlightAware ADS-B
Mon 09:00:47 PM 26.9000 -82.0860 290° West 382 440 35,900 353 Climbing FlightAware ADS-B
Mon 09:01:32 PM 26.9270 -82.1700 290° West 384 442 36,000 67 Climbing FlightAware ADS-B
Mon 09:02:17 PM 26.9530 -82.2520 290° West 385 443 36,000  Level FlightAware ADS-B
Mon 09:02:57 PM 26.9780 -82.3280 290° West 385 443 36,000  Level FlightAware ADS-B
Mon 09:03:37 PM 27.0030 -82.4050 290° West 385 443 36,000  Level FlightAware ADS-B
Mon 09:04:22 PM 27.0290 -82.4860 290° West 385 443 36,000  Level FlightAware ADS-B
Mon 09:05:02 PM 27.0530 -82.5620 290° West 386 444 36,000  Level FlightAware ADS-B
Mon 09:05:47 PM 27.0820 -82.6510 290° West 384 442 36,000  Level FlightAware ADS-B
Mon 09:06:42 PM 27.1120 -82.7460 290° West 383 441 36,000  Level FlightAware ADS-B
Mon 09:07:22 PM 27.1360 -82.8210 290° West 382 440 36,000  Level FlightAware ADS-B
Mon 09:08:07 PM 27.1620 -82.9030 290° West 382 440 36,000  Level FlightAware ADS-B
Mon 09:08:42 PM 27.1850 -82.9770 289° West 381 438 36,000  Level FlightAware ADS-B
Mon 09:09:32 PM 27.2140 -83.0680 290° West 381 438 36,000  Level FlightAware ADS-B
Mon 09:10:12 PM 27.2380 -83.1430 290° West 381 438 36,000  Level FlightAware ADS-B
Mon 09:10:52 PM 27.2610 -83.2170 289° West 382 440 36,000  Level FlightAware ADS-B
Mon 09:11:37 PM 27.2890 -83.3050 290° West 382 440 36,000  Level FlightAware ADS-B
Mon 09:12:17 PM 27.3120 -83.3790 289° West 384 442 36,000  Level FlightAware ADS-B
Mon 09:12:57 PM 27.3350 -83.4520 290° West 385 443 36,000  Level FlightAware ADS-B
Mon 09:13:57 PM 27.3680 -83.5590 289° West 386 444 36,000  Level FlightAware ADS-B
Mon 09:14:37 PM 27.3920 -83.6350 290° West 386 444 36,000  Level FlightAware ADS-B
Mon 09:15:17 PM 27.4150 -83.7120 289° West 386 444 36,000  Level FlightAware ADS-B
Mon 09:16:02 PM 27.4430 -83.8000 290° West 385 443 36,000  Level FlightAware ADS-B
Mon 09:16:42 PM 27.4670 -83.8790 289° West 385 443 36,000  Level FlightAware ADS-B
Mon 09:17:27 PM 27.4940 -83.9670 289° West 383 441 36,000  Level FlightAware ADS-B
Mon 09:18:07 PM 27.5170 -84.0420 289° West 382 440 36,000  Level FlightAware ADS-B
Mon 09:18:52 PM 27.5430 -84.1240 290° West 383 441 36,000  Level FlightAware ADS-B
Mon 09:19:32 PM 27.5660 -84.2000 289° West 383 441 36,000  Level FlightAware ADS-B
Mon 09:20:12 PM 27.5890 -84.2750 289° West 383 441 36,000  Level FlightAware ADS-B
Mon 09:20:57 PM 27.6150 -84.3630 288° West 383 441 36,000  Level FlightAware ADS-B
Mon 09:21:37 PM 27.6380 -84.4370 289° West 384 442 36,000  Level FlightAware ADS-B
Mon 09:22:22 PM 27.6630 -84.5190 289° West 384 442 36,000  Level FlightAware ADS-B
Mon 09:23:02 PM 27.6870 -84.5980 289° West 385 443 36,000  Level FlightAware ADS-B
Mon 09:23:42 PM 27.7090 -84.6720 289° West 386 444 36,000  Level FlightAware ADS-B
Mon 09:24:27 PM 27.7360 -84.7610 289° West 386 444 36,000  Level FlightAware ADS-B
Mon 09:25:07 PM 27.7580 -84.8330 289° West 386 444 36,000  Level FlightAware ADS-B
Mon 09:25:47 PM 27.7810 -84.9120 288° West 386 444 36,000  Level FlightAware ADS-B
Mon 09:26:32 PM 27.8050 -84.9910 289° West 385 443 36,000  Level FlightAware ADS-B
Mon 09:27:17 PM 27.8310 -85.0780 289° West 36,000  Level FlightAware ADS-B
Mon 09:27:47 PM 27.8500 -85.1410 289° West 384 442 36,000  Level FlightAware ADS-B
Mon 09:28:37 PM 27.8740 -85.2250 288° West 383 441 36,000  Level FlightAware ADS-B
Mon 09:29:17 PM 27.8970 -85.3040 288° West 383 441 36,000  Level FlightAware ADS-B
Mon 09:30:02 PM 27.9250 -85.3930 290° West 383 441 36,000  Level FlightAware ADS-B
Mon 09:30:42 PM 27.9480 -85.4680 289° West 383 441 36,000  Level FlightAware ADS-B
Mon 09:31:42 PM 27.9790 -85.5780 288° West 383 441 36,000  Level FlightAware ADS-B
Mon 09:32:22 PM 27.9970 -85.6430 287° West 383 441 36,000  Level FlightAware ADS-B
Mon 09:33:02 PM 28.0140 -85.7080 287° West 383 441 36,000  Level FlightAware ADS-B
Mon 09:33:42 PM 28.0320 -85.7740 287° West 383 441 36,000  Level FlightAware ADS-B
Mon 09:34:22 PM 28.0490 -85.8390 287° West 383 441 36,000  Level FlightAware ADS-B
Mon 09:35:12 PM 28.0710 -85.9200 287° West 383 441 36,000  Level FlightAware ADS-B
Mon 09:35:52 PM 28.0890 -85.9860 287° West 383 441 36,000  Level FlightAware ADS-B
Mon 09:36:32 PM 28.1070 -86.0510 287° West 383 441 36,000  Level FlightAware ADS-B
Mon 09:37:12 PM 28.1240 -86.1160 287° West 383 441 36,000  Level FlightAware ADS-B
Mon 09:37:52 PM 28.1420 -86.1820 287° West 383 441 36,000  Level FlightAware ADS-B
Mon 09:38:42 PM 28.1640 -86.2630 287° West 383 441 36,000  Level FlightAware ADS-B
Mon 09:39:22 PM 28.1810 -86.3290 286° West 383 441 36,000  Level FlightAware ADS-B
Mon 09:40:02 PM 28.1990 -86.3940 287° West 383 441 36,000  Level FlightAware ADS-B
Mon 09:40:42 PM 28.2170 -86.4590 287° West 383 441 36,000  Level FlightAware ADS-B
Mon 09:41:08 PM 28.3033 -86.6619 287° West 391 450 36,000  Level Jacksonville Center
Mon 09:42:08 PM 28.3356 -86.7739 288° West 380 437 36,000  Level Jacksonville Center
Mon 09:43:08 PM 28.3714 -86.8933 289° West 387 445 36,000  Level Jacksonville Center
Mon 09:44:08 PM 28.4053 -87.0081 289° West 387 445 36,000  Level Jacksonville Center
Mon 09:45:08 PM 28.4369 -87.1247 287° West 387 445 36,000  Level Jacksonville Center
Mon 09:46:08 PM 28.4708 -87.2397 289° West 381 438 36,000 -50 Level Jacksonville Center
Mon 09:47:08 PM 28.5025 -87.3519 288° West 388 447 35,900 -50 Descending Jacksonville Center
Mon 09:48:08 PM 28.5400 -87.4717 290° West 388 447 35,900 29 Level Jacksonville Center
Mon 09:50:36 PM 28.6203 -87.7600 288° West 388 447 36,000 29 Climbing Houston Center
Mon 09:51:38 PM 28.6528 -87.8758 288° West 385 443 36,000  Level Houston Center
Mon 09:52:39 PM 28.6856 -87.9914 288° West 384 442 36,000  Level Houston Center
Mon 09:53:40 PM 28.7306 -88.0989 296° West 395 455 36,000  Level Houston Center
Mon 09:59:12 PM 29.0680 -88.6610 296° West 387 445 36,000  Level FlightAware ADS-B
Mon 09:59:52 PM 29.1110 -88.7330 304° West 387 445 36,000  Level FlightAware ADS-B
Mon 10:00:37 PM 29.1570 -88.8100 304° West 386 444 36,000  Level FlightAware ADS-B
Mon 10:01:07 PM 29.1840 -88.8560 304° West 387 445 36,000  Level FlightAware ADS-B
Mon 10:02:02 PM 29.2340 -88.9400 304° West 387 445 36,000  Level FlightAware ADS-B
Mon 10:02:37 PM 29.2740 -89.0090 304° West 388 447 36,000  Level FlightAware ADS-B
Mon 10:03:17 PM 29.3090 -89.0670 305° West 388 447 36,000  Level FlightAware ADS-B
Mon 10:04:07 PM 29.3510 -89.1390 304° West 388 447 36,000  Level FlightAware ADS-B
Mon 10:04:47 PM 29.3850 -89.1970 304° West 388 447 36,000  Level FlightAware ADS-B
Mon 10:05:27 PM 29.4200 -89.2550 305° West 388 447 36,000  Level FlightAware ADS-B
Mon 10:06:07 PM 29.4540 -89.3140 304° West 388 447 36,000  Level FlightAware ADS-B
Mon 10:06:47 PM 29.4880 -89.3720 304° West 388 447 36,000  Level FlightAware ADS-B
Mon 10:07:37 PM 29.5300 -89.4440 304° West 388 447 36,000  Level FlightAware ADS-B
Mon 10:08:17 PM 29.5650 -89.5020 305° West 388 447 36,000  Level FlightAware ADS-B
Mon 10:08:57 PM 29.5990 -89.5610 304° West 388 447 36,000  Level FlightAware ADS-B
Mon 10:09:37 PM 29.6330 -89.6190 304° West 388 447 36,000  Level FlightAware ADS-B
Mon 10:10:17 PM 29.6670 -89.6770 304° West 388 447 36,000  Level FlightAware ADS-B
Mon 10:11:07 PM 29.7850 -89.8800 304° West 389 448 36,000  Level FlightAware ADS-B
Mon 10:11:47 PM 29.8290 -89.9540 304° West 388 447 36,000  Level FlightAware ADS-B
Mon 10:12:22 PM 29.8500 -89.9920 303° West 389 448 36,000  Level FlightAware ADS-B
Mon 10:13:12 PM 29.9110 -90.0960 304° West 388 447 36,000  Level FlightAware ADS-B
Mon 10:13:47 PM 29.9460 -90.1580 303° West 387 445 36,000  Level FlightAware ADS-B
Mon 10:14:27 PM 29.9850 -90.2260 304° West 388 447 36,000  Level FlightAware ADS-B
Mon 10:15:12 PM 30.0290 -90.3030 303° West 386 444 36,000  Level FlightAware ADS-B
Mon 10:15:52 PM 30.0690 -90.3710 304° West 386 444 36,000  Level FlightAware ADS-B
Mon 10:16:37 PM 30.1120 -90.4470 303° West 386 444 36,000  Level FlightAware ADS-B
Mon 10:17:17 PM 30.1530 -90.5180 304° West 385 443 36,000  Level FlightAware ADS-B
Mon 10:18:02 PM 30.1960 -90.5950 303° West 385 443 36,000  Level FlightAware ADS-B
Mon 10:18:47 PM 30.2400 -90.6720 303° West 385 443 36,000  Level FlightAware ADS-B
Mon 10:19:09 PM 30.2677 -90.7198 304° West 386 444 36,000  Level FlightAware ADS-B
Mon 10:19:40 PM 30.2975 -90.7724 303° West 386 444 36,000  Level FlightAware ADS-B
Mon 10:20:12 PM 30.3250 -90.8210 303° West 385 443 36,000  Level FlightAware ADS-B
Mon 10:20:52 PM 30.3630 -90.8880 303° West 385 443 36,000  Level FlightAware ADS-B
Mon 10:21:37 PM 30.4030 -90.9600 303° West 385 443 36,000  Level FlightAware ADS-B
Mon 10:22:47 PM 30.4740 -91.0840 304° West 386 444 36,000  Level FlightAware ADS-B
Mon 10:23:37 PM 30.5220 -91.1700 303° West 386 444 36,000  Level FlightAware ADS-B
Mon 10:24:17 PM 30.5550 -91.2290 303° West 386 444 36,000  Level FlightAware ADS-B
Mon 10:25:07 PM 30.5960 -91.3030 303° West 386 444 36,000  Level FlightAware ADS-B
Mon 10:25:47 PM 30.6290 -91.3620 303° West 386 444 36,000  Level FlightAware ADS-B
Mon 10:26:27 PM 30.6620 -91.4220 303° West 386 444 36,000  Level FlightAware ADS-B
Mon 10:27:07 PM 30.6950 -91.4810 303° West 386 444 36,000  Level FlightAware ADS-B
Mon 10:27:47 PM 30.7290 -91.5400 304° West 386 444 36,000  Level FlightAware ADS-B
Mon 10:28:37 PM 30.7700 -91.6140 303° West 386 444 36,000  Level FlightAware ADS-B
Mon 10:29:12 PM 30.8480 -91.7560 303° West 386 444 36,000  Level FlightAware ADS-B
Mon 10:30:02 PM 30.8880 -91.8310 302° West 386 444 36,000  Level FlightAware ADS-B
Mon 10:30:42 PM 30.9200 -91.8910 302° West 386 444 36,000  Level FlightAware ADS-B
Mon 10:31:22 PM 30.9520 -91.9510 302° West 386 444 36,000  Level FlightAware ADS-B
Mon 10:32:02 PM 30.9840 -92.0110 302° West 386 444 36,000  Level FlightAware ADS-B
Mon 10:32:32 PM 31.0480 -92.1181 305° West 392 451 36,000  Level FlightAware ADS-B
Mon 10:33:03 PM 31.0779 -92.1725 303° West 392 451 36,000  Level FlightAware ADS-B
Mon 10:34:04 PM 31.1369 -92.2804 303° West 391 450 36,000  Level FlightAware ADS-B
Mon 10:36:15 PM 31.2616 -92.5129 302° West 386 444 36,000  Level FlightAware ADS-B
Mon 10:36:49 PM 31.2860 -92.5782 294° West 386 444 36,000  Level FlightAware ADS-B
Mon 10:37:19 PM 31.3072 -92.6340 294° West 385 443 36,000  Level FlightAware ADS-B
Mon 10:37:52 PM 31.3318 -92.6987 294° West 386 444 36,000  Level FlightAware ADS-B
Mon 10:38:33 PM 31.3611 -92.7764 294° West 386 444 36,000  Level FlightAware ADS-B
Mon 10:39:07 PM 31.3854 -92.8407 294° West 386 444 36,000  Level FlightAware ADS-B
Mon 10:39:38 PM 31.4076 -92.8999 294° West 387 445 36,000  Level FlightAware ADS-B
Mon 10:43:21 PM 31.5683 -93.3309 294° West 391 450 36,000  Level FlightAware ADS-B
Mon 10:43:59 PM 31.5952 -93.4035 294° West 391 450 36,000  Level FlightAware ADS-B
Mon 10:44:29 PM 31.6171 -93.4632 293° West 391 450 36,000  Level FlightAware ADS-B
Mon 10:44:59 PM 31.6388 -93.5218 294° West 391 450 36,000  Level FlightAware ADS-B
Mon 10:45:30 PM 31.6613 -93.5829 293° West 391 450 36,000  Level FlightAware ADS-B
Mon 10:46:01 PM 31.6837 -93.6433 294° West 392 451 36,000  Level FlightAware ADS-B
Mon 10:46:39 PM 31.7104 -93.7161 293° West 391 450 36,000  Level FlightAware ADS-B
Mon 10:47:10 PM 31.7324 -93.7762 293° West 390 449 36,000  Level FlightAware ADS-B
Mon 10:47:27 PM 31.7440 -93.8079 293° West 389 448 36,000  Level FlightAware ADS-B
Mon 10:47:35 PM 31.7493 -93.8257 289° West 389 448 36,000  Level FlightAware ADS-B
Mon 10:47:46 PM 31.7543 -93.8490 284° West 390 449 36,000  Level FlightAware ADS-B
Mon 10:48:19 PM 31.7672 -93.9161 283° West 390 449 36,000  Level FlightAware ADS-B
Mon 10:48:42 PM 31.7765 -93.9631 283° West 390 449 36,000  Level FlightAware ADS-B
Mon 10:48:50 PM 31.7800 -93.9806 283° West 389 448 36,000  Level FlightAware ADS-B
Mon 10:49:21 PM 31.7924 -94.0432 283° West 389 448 36,000  Level FlightAware ADS-B
Mon 10:49:54 PM 31.8059 -94.1120 283° West 389 448 36,000  Level FlightAware ADS-B
Mon 10:50:00 PM 31.8082 -94.1237 283° West 389 448 36,000  Level FlightAware ADS-B
Mon 10:50:24 PM 31.8181 -94.1740 283° West 389 448 36,000  Level FlightAware ADS-B
Mon 10:50:30 PM 31.8204 -94.1859 283° West 389 448 36,000  Level FlightAware ADS-B
Mon 10:50:55 PM 31.8300 -94.2350 283° West 389 448 36,000  Level FlightAware ADS-B
Mon 10:51:02 PM 31.8330 -94.2506 283° West 389 448 36,000  Level FlightAware ADS-B
Mon 10:51:25 PM 31.8423 -94.2989 283° West 389 448 36,000  Level FlightAware ADS-B
Mon 10:51:32 PM 31.8451 -94.3133 283° West 389 448 36,000  Level FlightAware ADS-B
Mon 10:51:56 PM 31.8544 -94.3618 283° West 389 448 36,000  Level FlightAware ADS-B
Mon 10:52:02 PM 31.8571 -94.3754 283° West 389 448 36,000  Level FlightAware ADS-B
Mon 10:52:26 PM 31.8664 -94.4235 283° West 390 449 36,000  Level FlightAware ADS-B
Mon 10:52:32 PM 31.8691 -94.4375 283° West 390 449 36,000  Level FlightAware ADS-B
Mon 10:52:57 PM 31.8786 -94.4873 283° West 389 448 36,000  Level FlightAware ADS-B
Mon 10:53:03 PM 31.8808 -94.4985 283° West 389 448 36,000  Level FlightAware ADS-B
Mon 10:53:28 PM 31.8910 -94.5518 283° West 391 450 36,000  Level FlightAware ADS-B
Mon 10:53:33 PM 31.8931 -94.5626 283° West 391 450 36,000  Level FlightAware ADS-B
Mon 10:53:59 PM 31.9032 -94.6154 283° West 391 450 36,000  Level FlightAware ADS-B
Mon 10:54:04 PM 31.9052 -94.6257 283° West 390 449 36,000  Level FlightAware ADS-B
Mon 10:54:31 PM 31.9159 -94.6819 283° West 392 451 36,000  Level FlightAware ADS-B
Mon 10:54:38 PM 31.9188 -94.6975 282° West 392 451 36,000  Level FlightAware ADS-B
Mon 10:55:00 PM 31.9272 -94.7418 283° West 394 453 36,000  Level FlightAware ADS-B
Mon 10:55:10 PM 31.9314 -94.7636 283° West 394 453 36,000  Level FlightAware ADS-B
Mon 10:55:30 PM 31.9394 -94.8051 283° West 395 455 36,000  Level FlightAware ADS-B
Mon 10:55:41 PM 31.9438 -94.8280 283° West 395 455 36,000  Level FlightAware ADS-B
Mon 10:56:01 PM 31.9518 -94.8702 283° West 396 456 36,000  Level FlightAware ADS-B
Mon 10:56:11 PM 31.9557 -94.8909 283° West 396 456 36,000  Level FlightAware ADS-B
Mon 10:56:31 PM 31.9633 -94.9318 282° West 397 457 36,000  Level FlightAware ADS-B
Mon 10:56:41 PM 31.9678 -94.9556 283° West 397 457 36,000  Level FlightAware ADS-B
Mon 10:57:01 PM 31.9756 -94.9975 282° West 396 456 36,000  Level FlightAware ADS-B
Mon 10:57:15 PM 31.9810 -95.0261 283° West 396 456 36,000  Level FlightAware ADS-B
Mon 10:57:32 PM 31.9876 -95.0615 282° West 396 456 36,000  Level FlightAware ADS-B
Mon 10:57:45 PM 31.9930 -95.0901 283° West 396 456 36,000  Level FlightAware ADS-B
Mon 10:58:02 PM 31.9995 -95.1250 282° West 396 456 36,000  Level FlightAware ADS-B
Mon 10:58:16 PM 32.0049 -95.1536 283° West 396 456 36,000  Level FlightAware ADS-B
Mon 10:58:33 PM 32.0116 -95.1894 282° West 396 456 36,000  Level FlightAware ADS-B
Mon 10:58:46 PM 32.0170 -95.2181 283° West 397 457 36,000  Level FlightAware ADS-B
Mon 10:59:03 PM 32.0236 -95.2538 282° West 396 456 36,000  Level FlightAware ADS-B
Mon 10:59:17 PM 32.0290 -95.2829 282° West 396 456 36,000 -387 Level FlightAware ADS-B
Mon 10:59:34 PM 32.0358 -95.3196 282° West 398 458 35,800 -1,200 Descending FlightAware ADS-B
Mon 10:59:47 PM 32.0407 -95.3467 282° West 398 458 35,400 -1,875 Descending FlightAware ADS-B
Mon 11:00:06 PM 32.0474 -95.3829 282° West 396 456 34,800 -2,063 Descending FlightAware ADS-B
Mon 11:00:19 PM 32.0532 -95.4145 282° West 394 453 34,300 -2,233 Descending FlightAware ADS-B
Mon 11:00:49 PM 32.0646 -95.4760 282° West 393 452 33,200 -2,129 Descending FlightAware ADS-B
Mon 11:00:50 PM 32.0651 -95.4785 283° West 392 451 33,200 -2,182 Level FlightAware ADS-B
Mon 11:01:22 PM 32.0772 -95.5457 282° West 390 449 32,000 -2,250 Descending FlightAware ADS-B
Mon 11:01:30 PM 32.0801 -95.5623 282° West 390 449 31,700 -2,200 Descending FlightAware ADS-B
Mon 11:01:52 PM 32.0876 -95.6078 281° West 389 448 30,900 -2,182 Descending FlightAware ADS-B
Mon 11:02:03 PM 32.0912 -95.6301 281° West 389 448 30,500 -2,154 Descending FlightAware ADS-B
Mon 11:02:31 PM 32.1004 -95.6882 281° West 388 447 29,500 -2,270 Descending FlightAware ADS-B
Mon 11:02:40 PM 32.1036 -95.7081 281° West 389 448 29,100 -2,250 Descending FlightAware ADS-B
Mon 11:03:03 PM 32.1112 -95.7551 281° West 387 445 28,300 -2,264 Descending FlightAware ADS-B
Mon 11:03:33 PM 32.1213 -95.8170 281° West 385 443 27,100 -2,318 Descending FlightAware ADS-B
Mon 11:03:47 PM 32.1258 -95.8453 281° West 384 442 26,600 -2,182 Descending FlightAware ADS-B
Mon 11:04:06 PM 32.1322 -95.8846 281° West 382 440 25,900 -2,167 Descending FlightAware ADS-B
Mon 11:04:23 PM 32.1377 -95.9188 281° West 383 441 25,300 -2,129 Descending FlightAware ADS-B
Mon 11:04:37 PM 32.1422 -95.9471 281° West 381 438 24,800 -2,200 Descending FlightAware ADS-B
Mon 11:04:53 PM 32.1475 -95.9800 281° West 379 436 24,200 -2,250 Descending FlightAware ADS-B
Mon 11:05:09 PM 32.1526 -96.0119 281° West 378 435 23,600 -2,129 Descending FlightAware ADS-B
Mon 11:05:24 PM 32.1573 -96.0411 281° West 375 432 23,100 -2,182 Descending FlightAware ADS-B
Mon 11:05:42 PM 32.1632 -96.0786 281° West 374 430 22,400 -2,200 Descending FlightAware ADS-B
Mon 11:05:54 PM 32.1669 -96.1017 281° West 373 429 22,000 -2,143 Descending FlightAware ADS-B
Mon 11:06:24 PM 32.1768 -96.1633 281° West 371 427 20,900 -2,111 Descending FlightAware ADS-B
Mon 11:06:48 PM 32.1862 -96.2093 284° West 368 423 20,100 -1,800 Descending FlightAware ADS-B
Mon 11:07:04 PM 32.2003 -96.2355 302° West 363 418 19,700 -1,579 Descending FlightAware ADS-B
Mon 11:07:07 PM 32.2037 -96.2399 312° West 362 417 19,600 -2,000 Descending FlightAware ADS-B
Mon 11:07:37 PM 32.2392 -96.2812 315° West 352 405 18,600 -1,865 Descending FlightAware ADS-B
Mon 11:08:21 PM 32.2894 -96.3405 315° West 340 391 17,300 -1,840 Descending FlightAware ADS-B
Mon 11:08:52 PM 32.3231 -96.3805 315° West 332 382 16,300 -1,714 Descending FlightAware ADS-B
Mon 11:09:31 PM 32.3642 -96.4291 315° West 329 379 15,300 -1,304 Descending FlightAware ADS-B
Mon 11:10:01 PM 32.3965 -96.4674 315° West 330 380 14,800 -1,545 Descending FlightAware ADS-B
Mon 11:10:37 PM 32.4330 -96.5110 315° West 333 383 13,600 -2,053 Descending FlightAware ADS-B
Mon 11:11:17 PM 32.4770 -96.5620 316° Northwest 332 382 12,200 -1,553 Descending FlightAware ADS-B
Mon 11:12:02 PM 32.5240 -96.6180 315° West 308 354 11,400 -776 Descending FlightAware ADS-B
Mon 11:12:42 PM 32.5620 -96.6630 315° West 281 323 11,100 -212 Descending FlightAware ADS-B
Mon 11:13:27 PM 32.6050 -96.7150 314° West 286 329 11,100  Level FlightAware ADS-B
Mon 11:14:07 PM 32.6410 -96.7590 314° West 285 328 11,100  Level FlightAware ADS-B
Mon 11:14:47 PM 32.6790 -96.8040 315° West 284 327 11,100  Level FlightAware ADS-B
Mon 11:15:32 PM 32.7180 -96.8500 315° West 246 283 11,100  Level FlightAware ADS-B
Mon 11:16:12 PM 32.7490 -96.8870 315° West 234 269 11,100  Level FlightAware ADS-B
Mon 11:16:27 PM 32.7620 -96.8990 322° Northwest 242 278 11,100  Level FlightAware ADS-B
Mon 11:16:42 PM 32.7800 -96.9030 349° North 257 296 11,100 -240 Level FlightAware ADS-B
Mon 11:17:17 PM 32.8180 -96.9030 360° North 256 295 10,900 -1,029 Descending FlightAware ADS-B
Mon 11:17:52 PM 32.8600 -96.9030 360° North 253 291 9,900 -1,900 Descending FlightAware ADS-B
Mon 11:18:17 PM 32.8910 -96.9040 358° North 254 292 9,000 -1,964 Descending FlightAware ADS-B
Mon 11:18:47 PM 32.9270 -96.9040 360° North 254 292 8,100 -1,800 Descending FlightAware ADS-B
Mon 11:19:17 PM 32.9610 -96.9050 359° North 257 296 7,200 -1,636 Descending FlightAware ADS-B
Mon 11:19:42 PM 32.9900 -96.9050 360° North 256 295 6,600 -1,309 Descending FlightAware ADS-B
Mon 11:20:12 PM 33.0250 -96.9060 359° North 252 290 6,000 -1,418 Descending FlightAware ADS-B
Mon 11:20:37 PM 33.0560 -96.9060 360° North 259 298 5,300 -1,500 Descending FlightAware ADS-B
Mon 11:20:52 PM 33.0740 -96.9100 349° North 253 291 5,000 -1,000 Descending FlightAware ADS-B
Mon 11:21:07 PM 33.0870 -96.9200 327° Northwest 232 267 4,800 -1,200 Descending FlightAware ADS-B
Mon 11:21:22 PM 33.0930 -96.9380 292° West 202 232 4,400 -1,350 Descending FlightAware ADS-B
Mon 11:21:47 PM 33.0950 -96.9640 275° West 195 224 3,900 -1,200 Descending FlightAware ADS-B
Mon 11:22:17 PM 33.0920 -96.9920 263° West 162 186 3,300 -1,067 Descending FlightAware ADS-B
Mon 11:22:32 PM 33.0860 -97.0020 234° Southwest 152 175 3,100 -450 Descending FlightAware ADS-B
Mon 11:22:57 PM 33.0720 -97.0160 220° Southwest 151 174 3,000  Descending FlightAware ADS-B
Mon 11:23:27 PM 33.0530 -97.0240 199° South 145 167 3,100 -100 Climbing FlightAware ADS-B
Mon 11:23:57 PM 33.0330 -97.0250 182° South 134 154 2,900 -545 Descending FlightAware ADS-B
Mon 11:24:22 PM 33.0180 -97.0250 180° South 134 154 2,600 -764 Descending FlightAware ADS-B
Mon 11:24:52 PM 32.9990 -97.0260 183° South 136 157 2,200 -720 Descending FlightAware ADS-B
Mon 11:25:12 PM 32.9860 -97.0260 180° South 134 154 2,000 -655 Descending FlightAware ADS-B
Mon 11:25:47 PM 32.9650 -97.0260 180° South 134 154 1,600 -686 Descending FlightAware ADS-B

Login

Don't have an account? Register now (free) for customized features, flight alerts, and more!